Time;durP1;ratioP1;P1;durP2;ratioP2;P2;SDS_P1;SDS_P2;PMS_P1;PMS_P2;Temp;Humidity;BMP_temperature;BMP_pressure;BME280_temperature;BME280_humidity;BME280_pressure;Samples;Min_cycle;Max_cycle;Signal;HPM_P1;HPM_P2
2023/03/11 00:01:03;;;;;;;5.53;3.20;;;-0.80;99.90;;;;;;5094474;27;20039;-62
2023/03/11 00:03:28;;;;;;;6.32;3.67;;;-0.80;99.90;;;;;;5084557;28;20052;-64
2023/03/11 00:05:54;;;;;;;7.68;3.50;;;-0.80;99.90;;;;;;5084148;28;20044;-65
2023/03/11 00:08:23;;;;;;;5.30;3.55;;;-0.90;99.90;;;;;;5082704;28;20029;-62
2023/03/11 00:10:59;;;;;;;5.05;3.10;;;-0.80;99.90;;;;;;5079974;28;20045;-64
2023/03/11 00:13:25;;;;;;;5.53;3.40;;;-0.80;99.90;;;;;;5085537;28;20044;-62
2023/03/11 00:15:58;;;;;;;7.35;3.95;;;-0.80;99.90;;;;;;5082685;28;20055;-64
2023/03/11 00:18:26;;;;;;;8.50;3.50;;;-0.80;99.90;;;;;;5072754;28;20097;-63
2023/03/11 00:20:53;;;;;;;4.05;2.78;;;-0.90;99.90;;;;;;5070704;28;20063;-62
2023/03/11 00:23:19;;;;;;;4.93;3.20;;;-0.90;99.90;;;;;;5068433;28;20089;-60
2023/03/11 00:25:45;;;;;;;5.35;3.22;;;-0.80;99.90;;;;;;5070030;28;20517;-61
2023/03/11 00:28:13;;;;;;;5.40;2.75;;;-1.00;99.90;;;;;;5073456;28;20032;-62
2023/03/11 00:30:40;;;;;;;4.75;3.13;;;-1.00;99.90;;;;;;5085208;28;20136;-62
2023/03/11 00:33:07;;;;;;;4.82;2.90;;;-0.90;99.90;;;;;;5070473;28;20564;-61
2023/03/11 00:35:33;;;;;;;4.80;3.08;;;-0.90;99.90;;;;;;5069054;28;20052;-64
2023/03/11 00:38:03;;;;;;;4.50;2.72;;;-0.90;99.90;;;;;;5068360;28;20036;-64
2023/03/11 00:40:31;;;;;;;5.03;3.08;;;-1.00;99.90;;;;;;5069897;28;20055;-63
2023/03/11 00:42:57;;;;;;;4.72;2.90;;;-0.90;99.90;;;;;;5069397;28;20037;-63
2023/03/11 00:45:24;;;;;;;3.58;2.60;;;-1.00;99.90;;;;;;5069523;28;20442;-63
2023/03/11 00:47:51;;;;;;;3.88;2.55;;;-1.00;99.90;;;;;;5071132;28;20044;-63
2023/03/11 00:50:19;;;;;;;4.47;2.75;;;-0.90;99.90;;;;;;5068992;28;20037;-64
2023/03/11 00:52:48;;;;;;;5.00;2.70;;;-0.90;99.90;;;;;;5069357;28;20527;-63
2023/03/11 00:55:16;;;;;;;6.20;2.47;;;-0.90;99.90;;;;;;5068897;28;20043;-63
2023/03/11 00:57:42;;;;;;;3.83;2.50;;;-1.00;99.90;;;;;;5068783;28;20048;-64
2023/03/11 01:00:13;;;;;;;3.13;2.17;;;-1.00;99.90;;;;;;5069590;28;20033;-63
2023/03/11 01:02:38;;;;;;;5.85;3.40;;;-1.00;99.90;;;;;;5068830;28;20050;-63
2023/03/11 01:05:05;;;;;;;14.90;2.45;;;-1.00;99.90;;;;;;5077691;28;20119;-64
2023/03/11 01:07:32;;;;;;;3.38;2.17;;;-1.10;99.90;;;;;;5075368;28;20284;-65
2023/03/11 01:09:58;;;;;;;5.65;2.10;;;-1.00;99.90;;;;;;5084602;28;20044;-64
2023/03/11 01:12:24;;;;;;;4.63;2.28;;;-1.00;99.90;;;;;;5073964;28;20566;-63
2023/03/11 01:14:49;;;;;;;3.45;2.33;;;-0.90;99.90;;;;;;5072715;28;20040;-64
2023/03/11 01:17:15;;;;;;;5.15;2.63;;;-0.90;99.90;;;;;;5069110;28;20044;-64
2023/03/11 01:19:41;;;;;;;3.75;2.53;;;-0.90;99.90;;;;;;5068108;28;20037;-63
2023/03/11 01:22:06;;;;;;;4.68;2.67;;;-1.00;99.90;;;;;;5069226;28;20123;-63
2023/03/11 01:24:32;;;;;;;5.10;2.92;;;-1.00;99.90;;;;;;5070348;28;20128;-64
2023/03/11 01:26:58;;;;;;;4.43;2.88;;;-1.00;99.90;;;;;;5069481;28;20036;-62
2023/03/11 01:29:23;;;;;;;5.55;3.10;;;-1.00;99.90;;;;;;5076137;28;20044;-64
2023/03/11 01:31:49;;;;;;;6.97;2.80;;;-1.00;99.90;;;;;;5079040;28;20045;-65
2023/03/11 01:34:15;;;;;;;3.60;2.85;;;-1.20;99.90;;;;;;5068865;28;20080;-63
2023/03/11 01:36:40;;;;;;;6.53;3.15;;;-1.10;99.90;;;;;;5069115;28;20040;-65
2023/03/11 01:39:06;;;;;;;5.95;2.55;;;-1.10;99.90;;;;;;5068552;28;20040;-64
2023/03/11 01:41:31;;;;;;;3.72;2.80;;;-1.20;99.90;;;;;;5068963;28;20083;-66
2023/03/11 01:43:57;;;;;;;3.03;2.33;;;-1.10;99.90;;;;;;5067323;28;20127;-63
2023/03/11 01:46:32;;;;;;;4.53;2.88;;;-1.10;99.90;;;;;;5072483;28;20106;-63
2023/03/11 01:49:02;;;;;;;6.65;2.85;;;-1.10;99.90;;;;;;5071990;28;20071;-60
2023/03/11 01:51:40;;;;;;;19.33;4.32;;;-1.10;99.90;;;;;;5082612;28;20036;-61
2023/03/11 01:54:11;;;;;;;5.32;2.50;;;-1.20;99.90;;;;;;5066211;28;20036;-60
2023/03/11 01:56:39;;;;;;;3.38;2.53;;;-1.10;99.90;;;;;;5075277;28;20072;-62
2023/03/11 01:59:07;;;;;;;5.10;2.92;;;-1.10;99.90;;;;;;5071127;28;20508;-62
2023/03/11 02:01:33;;;;;;;7.53;3.17;;;-1.10;99.90;;;;;;5080914;28;20036;-62
2023/03/11 02:04:02;;;;;;;6.10;2.58;;;-1.20;99.90;;;;;;5074236;28;20055;-67
2023/03/11 02:06:30;;;;;;;4.80;2.58;;;-1.20;99.90;;;;;;5079238;28;20037;-65
2023/03/11 02:08:56;;;;;;;5.32;2.85;;;-1.20;99.90;;;;;;5067938;28;20469;-63
2023/03/11 02:11:25;;;;;;;4.18;2.67;;;-1.20;99.90;;;;;;5083563;28;20089;-64
2023/03/11 02:13:55;;;;;;;4.50;2.42;;;-1.10;99.90;;;;;;5066115;28;20045;-62
2023/03/11 02:16:20;;;;;;;6.10;2.90;;;-1.20;99.90;;;;;;5061655;28;20041;-63
2023/03/11 02:18:46;;;;;;;6.13;3.50;;;-1.10;99.90;;;;;;5063425;28;20041;-62
2023/03/11 02:21:27;;;;;;;5.53;2.75;;;-1.10;99.90;;;;;;5067565;28;20123;-64
2023/03/11 02:24:12;;;;;;;8.38;2.72;;;-1.00;99.90;;;;;;5065078;28;20044;-64
2023/03/11 02:27:04;;;;;;;4.95;2.78;;;-1.00;99.90;;;;;;5062753;28;20053;-64
2023/03/11 02:29:32;;;;;;;7.97;2.58;;;-1.10;99.90;;;;;;5054327;28;20045;-61
2023/03/11 02:32:01;;;;;;;8.48;2.85;;;-1.00;99.90;;;;;;5066525;28;20040;-62
2023/03/11 02:34:32;;;;;;;6.05;2.45;;;-1.00;99.90;;;;;;5069014;28;20036;-63
2023/03/11 02:36:59;;;;;;;9.20;2.75;;;-1.00;99.90;;;;;;5068442;28;20528;-62
2023/03/11 02:39:34;;;;;;;6.57;2.33;;;-1.00;99.90;;;;;;5066777;28;20400;-65
2023/03/11 02:42:05;;;;;;;4.57;2.30;;;-0.90;99.90;;;;;;5064979;28;20408;-62
2023/03/11 02:44:32;;;;;;;5.28;2.33;;;-1.00;99.90;;;;;;5063310;28;20143;-65
2023/03/11 02:46:58;;;;;;;7.28;2.53;;;-0.90;99.90;;;;;;5062415;28;20036;-64
2023/03/11 02:49:24;;;;;;;3.60;2.10;;;-1.00;99.90;;;;;;5065019;28;20040;-65
2023/03/11 02:51:51;;;;;;;5.10;2.70;;;-1.00;99.90;;;;;;5062051;28;20131;-63
2023/03/11 02:54:16;;;;;;;7.03;2.55;;;-1.00;99.90;;;;;;5066835;28;20111;-64
2023/03/11 02:56:42;;;;;;;3.80;2.10;;;-1.00;99.90;;;;;;5063878;28;20119;-64
2023/03/11 02:59:08;;;;;;;3.80;2.47;;;-1.00;99.90;;;;;;5068620;28;20060;-61
2023/03/11 03:01:34;;;;;;;4.63;2.47;;;-1.00;99.90;;;;;;5060810;28;20036;-64
2023/03/11 03:04:00;;;;;;;5.68;2.88;;;-1.00;99.90;;;;;;5064129;28;20044;-60
2023/03/11 03:06:27;;;;;;;4.85;2.50;;;-1.10;99.90;;;;;;5063059;28;20041;-63
2023/03/11 03:08:53;;;;;;;4.85;2.60;;;-0.90;99.90;;;;;;5064577;28;20046;-64
2023/03/11 03:11:19;;;;;;;4.90;2.58;;;-0.90;99.90;;;;;;5062133;28;20029;-65
2023/03/11 03:13:44;;;;;;;6.47;2.53;;;-0.90;99.90;;;;;;5063679;28;20094;-63
2023/03/11 03:16:10;;;;;;;7.85;2.30;;;-0.90;99.90;;;;;;5061205;28;20119;-65
2023/03/11 03:18:37;;;;;;;7.18;2.47;;;-1.00;99.90;;;;;;5063354;28;20116;-62
2023/03/11 03:21:03;;;;;;;5.00;2.40;;;-0.90;99.90;;;;;;5065609;28;20029;-64
2023/03/11 03:23:28;;;;;;;6.03;2.42;;;-1.00;99.90;;;;;;5065398;28;20048;-65
2023/03/11 03:25:54;;;;;;;4.97;2.80;;;-1.10;99.90;;;;;;5063283;28;20095;-64
2023/03/11 03:28:20;;;;;;;5.40;2.42;;;-1.10;99.90;;;;;;5065646;28;20044;-65
2023/03/11 03:30:45;;;;;;;4.05;2.63;;;-1.10;99.90;;;;;;5056792;28;20044;-62
2023/03/11 03:33:11;;;;;;;4.38;2.60;;;-1.10;99.90;;;;;;5066330;28;20029;-62
2023/03/11 03:35:42;;;;;;;8.35;2.65;;;-1.10;99.90;;;;;;5070518;28;20040;-63
2023/03/11 03:38:08;;;;;;;5.80;3.65;;;-1.10;99.90;;;;;;5066381;28;20044;-66
2023/03/11 03:40:33;;;;;;;6.82;2.60;;;-1.20;99.90;;;;;;5068073;28;20171;-65
2023/03/11 03:42:59;;;;;;;5.75;2.65;;;-1.10;99.90;;;;;;5068144;28;20079;-62
2023/03/11 03:45:24;;;;;;;4.53;2.53;;;-1.10;99.90;;;;;;5066952;28;20051;-65
2023/03/11 03:47:50;;;;;;;4.63;2.40;;;-1.20;99.90;;;;;;5071212;28;20091;-65
2023/03/11 03:50:16;;;;;;;7.28;2.80;;;-1.20;99.90;;;;;;5071957;28;20036;-63
2023/03/11 03:52:42;;;;;;;6.53;2.35;;;-1.10;99.90;;;;;;5068265;28;20048;-63
2023/03/11 03:55:07;;;;;;;5.75;2.50;;;-1.10;99.90;;;;;;5074310;28;20032;-63
2023/03/11 03:57:33;;;;;;;4.45;2.40;;;-1.10;99.90;;;;;;5076578;28;20036;-63
2023/03/11 03:59:59;;;;;;;7.03;2.53;;;-1.00;99.90;;;;;;5086155;28;20064;-64
2023/03/11 04:02:24;;;;;;;4.10;2.50;;;-1.00;99.90;;;;;;5075487;28;20036;-63
2023/03/11 04:04:50;;;;;;;5.60;2.97;;;-1.00;99.90;;;;;;5070394;28;20127;-63
2023/03/11 04:07:16;;;;;;;6.50;2.85;;;-1.00;99.90;;;;;;5077924;28;20036;-64
2023/03/11 04:09:42;;;;;;;5.25;2.50;;;-1.00;99.90;;;;;;5070212;28;20429;-63
2023/03/11 04:12:13;;;;;;;6.60;2.53;;;-1.00;99.90;;;;;;5070950;28;20036;-64
2023/03/11 04:14:39;;;;;;;7.07;2.65;;;-1.00;99.90;;;;;;5069846;28;20449;-65
2023/03/11 04:17:05;;;;;;;9.85;3.00;;;-1.00;99.90;;;;;;5072196;28;20044;-65
2023/03/11 04:19:31;;;;;;;4.35;2.50;;;-1.00;99.90;;;;;;5069949;28;20051;-65
2023/03/11 04:21:57;;;;;;;7.93;2.45;;;-1.10;99.90;;;;;;5070156;28;20032;-64
2023/03/11 04:24:22;;;;;;;7.28;2.35;;;-1.10;99.90;;;;;;5069871;28;20123;-65
2023/03/11 04:26:48;;;;;;;8.68;2.53;;;-1.10;99.90;;;;;;5070213;28;20052;-65
2023/03/11 04:29:14;;;;;;;7.25;2.70;;;-1.20;99.90;;;;;;5073639;28;20044;-64
2023/03/11 04:31:40;;;;;;;8.98;2.70;;;-1.10;99.90;;;;;;5071839;28;20041;-64
2023/03/11 04:34:05;;;;;;;7.88;3.10;;;-1.20;99.90;;;;;;5069043;28;20484;-63
2023/03/11 04:36:31;;;;;;;6.53;2.35;;;-1.20;99.90;;;;;;5070515;28;20412;-65
2023/03/11 04:38:57;;;;;;;7.18;2.85;;;-1.30;99.90;;;;;;5069573;28;20045;-63
2023/03/11 04:41:23;;;;;;;5.53;2.65;;;-1.40;99.90;;;;;;5069813;28;20423;-64
2023/03/11 04:43:48;;;;;;;8.65;3.25;;;-1.30;99.90;;;;;;5047927;28;20037;-65
2023/03/11 04:46:14;;;;;;;11.07;2.83;;;-1.30;99.90;;;;;;5070510;28;20045;-63
2023/03/11 04:48:40;;;;;;;12.70;2.78;;;-1.30;99.90;;;;;;5077033;28;20064;-65
2023/03/11 04:51:06;;;;;;;10.60;3.42;;;-1.30;99.90;;;;;;5070551;28;20605;-63
2023/03/11 04:53:32;;;;;;;10.60;2.70;;;-1.30;99.90;;;;;;5074689;28;20059;-65
2023/03/11 04:55:58;;;;;;;3.25;2.10;;;-1.30;99.90;;;;;;5086686;28;20044;-64
2023/03/11 04:58:24;;;;;;;7.93;2.55;;;-1.10;99.90;;;;;;5075833;28;20129;-63
2023/03/11 05:00:50;;;;;;;6.38;2.85;;;-1.10;99.90;;;;;;5086211;28;20482;-65
2023/03/11 05:03:15;;;;;;;9.65;2.88;;;-1.00;99.90;;;;;;5068474;28;20124;-64
2023/03/11 05:05:41;;;;;;;5.75;3.13;;;-1.00;99.90;;;;;;5078438;28;20131;-63
2023/03/11 05:08:07;;;;;;;7.68;2.47;;;-1.20;99.90;;;;;;5069677;28;20098;-65
2023/03/11 05:10:33;;;;;;;10.55;2.50;;;-1.30;99.90;;;;;;5069684;28;20040;-65
2023/03/11 05:12:58;;;;;;;6.13;2.50;;;-1.40;99.90;;;;;;5072596;28;20041;-61
2023/03/11 05:15:24;;;;;;;16.35;3.10;;;-1.30;99.90;;;;;;5066269;28;20059;-63
2023/03/11 05:17:49;;;;;;;5.55;2.35;;;-1.30;99.90;;;;;;5070422;28;20044;-63
2023/03/11 05:20:15;;;;;;;10.75;2.90;;;-1.30;99.90;;;;;;5069985;28;20040;-62
2023/03/11 05:22:41;;;;;;;8.25;2.30;;;-1.30;99.90;;;;;;5072395;28;20041;-65
2023/03/11 05:25:07;;;;;;;7.25;2.88;;;-1.30;99.90;;;;;;5069382;28;20385;-63
2023/03/11 05:27:33;;;;;;;6.80;2.25;;;-1.40;99.90;;;;;;5071565;28;20044;-63
2023/03/11 05:29:58;;;;;;;8.60;2.75;;;-1.30;99.90;;;;;;5084943;28;20117;-62
2023/03/11 05:32:24;;;;;;;13.50;2.75;;;-1.30;99.90;;;;;;5074480;28;20106;-63
2023/03/11 05:34:51;;;;;;;15.38;3.60;;;-1.20;99.90;;;;;;5068539;28;20071;-64
2023/03/11 05:37:17;;;;;;;13.60;2.97;;;-1.30;99.90;;;;;;5069290;28;20114;-63
2023/03/11 05:39:43;;;;;;;10.77;2.35;;;-1.30;99.90;;;;;;5081341;28;20044;-63
2023/03/11 05:42:09;;;;;;;15.82;2.92;;;-1.20;99.90;;;;;;5059940;28;20349;-66
2023/03/11 05:44:34;;;;;;;9.63;2.85;;;-1.20;99.90;;;;;;5067117;28;20041;-65
2023/03/11 05:47:00;;;;;;;7.80;2.58;;;-1.30;99.90;;;;;;5067952;28;20064;-64
2023/03/11 05:49:26;;;;;;;6.70;2.63;;;-1.40;99.90;;;;;;5080445;28;20075;-62
2023/03/11 05:51:53;;;;;;;16.33;2.50;;;-1.40;99.90;;;;;;5076177;28;20048;-64
2023/03/11 05:54:19;;;;;;;8.80;2.38;;;-1.30;99.90;;;;;;5067065;28;20178;-64
2023/03/11 05:56:45;;;;;;;13.50;2.63;;;-1.30;99.90;;;;;;5067161;28;20041;-65
2023/03/11 05:59:13;;;;;;;13.55;3.35;;;-1.30;99.90;;;;;;5067167;28;20114;-63
2023/03/11 06:01:39;;;;;;;12.02;2.65;;;-1.20;99.90;;;;;;5066990;28;20181;-64
2023/03/11 06:04:05;;;;;;;11.35;2.50;;;-1.20;99.90;;;;;;5067124;28;20520;-64
2023/03/11 06:06:31;;;;;;;9.52;2.35;;;-1.20;99.90;;;;;;5068179;28;20504;-64
2023/03/11 06:08:57;;;;;;;11.93;2.75;;;-1.20;99.90;;;;;;5066673;28;20052;-63
2023/03/11 06:11:24;;;;;;;6.45;2.70;;;-1.30;99.90;;;;;;5067280;28;20036;-63
2023/03/11 06:13:53;;;;;;;8.13;2.85;;;-1.30;99.90;;;;;;5069596;28;20128;-63
2023/03/11 06:16:19;;;;;;;4.30;2.30;;;-1.20;99.90;;;;;;5065897;28;20071;-64
2023/03/11 06:18:45;;;;;;;11.55;2.55;;;-1.20;99.90;;;;;;5069864;28;20746;-64
2023/03/11 06:21:19;;;;;;;9.63;2.42;;;-1.20;99.90;;;;;;5066066;28;20040;-61
2023/03/11 06:23:45;;;;;;;22.48;3.22;;;-1.20;99.90;;;;;;5065239;28;20075;-60
2023/03/11 06:26:16;;;;;;;6.95;2.38;;;-1.20;99.90;;;;;;5067644;28;20201;-65
2023/03/11 06:28:43;;;;;;;13.02;2.90;;;-1.30;99.90;;;;;;5068462;28;20080;-62
2023/03/11 06:31:10;;;;;;;11.70;2.70;;;-1.40;99.90;;;;;;5058832;28;20036;-62
2023/03/11 06:33:36;;;;;;;8.18;2.95;;;-1.30;99.90;;;;;;5063785;28;20044;-62
2023/03/11 06:36:03;;;;;;;11.65;2.80;;;-1.30;99.90;;;;;;5066906;28;20586;-63
2023/03/11 06:38:30;;;;;;;13.73;3.05;;;-1.30;99.90;;;;;;5065767;28;20048;-64
2023/03/11 06:41:03;;;;;;;10.50;2.33;;;-1.20;99.90;;;;;;5067555;28;20064;-61
2023/03/11 06:43:30;;;;;;;10.65;2.75;;;-1.20;99.90;;;;;;5061692;28;20123;-64
2023/03/11 06:45:56;;;;;;;10.80;2.67;;;-1.10;99.90;;;;;;5063227;28;20049;-65
2023/03/11 06:48:22;;;;;;;9.93;2.53;;;-1.10;99.90;;;;;;5068769;28;20405;-64
2023/03/11 06:50:54;;;;;;;6.80;2.58;;;-1.10;99.90;;;;;;5067296;28;20066;-65
2023/03/11 06:53:20;;;;;;;5.85;2.83;;;-1.10;99.90;;;;;;5066174;28;20483;-65
2023/03/11 06:55:55;;;;;;;7.85;3.28;;;-1.00;99.90;;;;;;5068899;28;20051;-65
2023/03/11 06:58:21;;;;;;;10.73;4.13;;;-0.90;99.90;;;;;;5064857;28;20044;-65
2023/03/11 07:00:47;;;;;;;8.15;2.60;;;-0.80;99.90;;;;;;5067434;28;20047;-64
2023/03/11 07:03:12;;;;;;;9.45;2.95;;;-0.90;99.90;;;;;;5064074;28;20389;-62
2023/03/11 07:05:38;;;;;;;7.88;2.90;;;-0.90;99.90;;;;;;5066014;28;20098;-61
2023/03/11 07:08:03;;;;;;;7.90;2.53;;;-0.90;99.90;;;;;;5065312;28;20059;-64
2023/03/11 07:10:29;;;;;;;7.38;2.75;;;-0.70;99.90;;;;;;5064679;28;20090;-64
2023/03/11 07:12:55;;;;;;;12.55;2.70;;;-0.50;99.90;;;;;;5064196;28;20231;-65
2023/03/11 07:15:20;;;;;;;9.88;3.60;;;-0.40;99.90;;;;;;5072423;28;20140;-61
2023/03/11 07:17:46;;;;;;;7.25;2.40;;;-0.30;99.90;;;;;;5066215;28;20495;-62
2023/03/11 07:20:12;;;;;;;13.27;2.88;;;-0.20;99.90;;;;;;5073934;28;20028;-63
2023/03/11 07:22:37;;;;;;;6.18;2.65;;;-0.20;99.90;;;;;;5066443;28;20186;-64
2023/03/11 07:25:03;;;;;;;6.30;2.63;;;-0.10;99.90;;;;;;5060616;28;20043;-64
2023/03/11 07:27:29;;;;;;;6.15;2.72;;;-0.20;99.90;;;;;;5063878;28;20123;-64
2023/03/11 07:29:54;;;;;;;10.23;2.83;;;-0.30;99.90;;;;;;5073053;28;20705;-65
2023/03/11 07:32:20;;;;;;;9.05;2.28;;;-0.30;99.90;;;;;;5067291;28;20037;-65
2023/03/11 07:34:45;;;;;;;8.88;2.40;;;-0.20;99.90;;;;;;5062850;28;20127;-65
2023/03/11 07:37:11;;;;;;;7.13;2.58;;;-0.30;99.90;;;;;;5067933;28;20051;-65
2023/03/11 07:39:37;;;;;;;9.32;2.80;;;0.00;99.90;;;;;;5072875;28;20058;-64
2023/03/11 07:42:04;;;;;;;8.20;2.40;;;0.20;99.90;;;;;;5069955;28;20051;-65
2023/03/11 07:44:29;;;;;;;15.10;2.47;;;0.40;99.90;;;;;;5071065;28;20059;-66
2023/03/11 07:46:55;;;;;;;6.97;2.15;;;0.60;99.90;;;;;;5072474;28;20045;-64
2023/03/11 07:49:21;;;;;;;5.03;2.15;;;0.80;99.90;;;;;;5071979;28;20047;-65
2023/03/11 07:51:46;;;;;;;9.13;2.28;;;1.00;99.90;;;;;;5074187;28;20142;-66
2023/03/11 07:54:12;;;;;;;17.33;2.70;;;1.00;99.90;;;;;;5072529;28;20040;-66
2023/03/11 07:56:38;;;;;;;8.00;2.00;;;0.80;99.90;;;;;;5069808;28;20048;-63
2023/03/11 07:59:04;;;;;;;11.65;1.98;;;0.80;99.90;;;;;;5068483;28;20106;-64
2023/03/11 08:01:35;;;;;;;11.23;1.95;;;1.00;99.90;;;;;;5069185;28;20044;-65
2023/03/11 08:04:03;;;;;;;5.45;2.17;;;1.60;99.90;;;;;;5068108;28;20036;-65
2023/03/11 08:06:31;;;;;;;4.72;1.45;;;1.70;99.90;;;;;;5069597;28;20052;-65
2023/03/11 08:09:02;;;;;;;8.23;2.17;;;2.10;99.90;;;;;;5068397;28;20516;-62
2023/03/11 08:11:30;;;;;;;3.83;1.60;;;1.90;99.90;;;;;;5077647;28;20052;-63
2023/03/11 08:13:56;;;;;;;7.90;1.65;;;1.50;99.90;;;;;;5068714;28;20086;-62
2023/03/11 08:16:23;;;;;;;5.60;1.45;;;1.70;99.90;;;;;;5068421;28;20080;-64
2023/03/11 08:18:50;;;;;;;7.78;1.83;;;2.10;99.90;;;;;;5070059;28;20048;-62
2023/03/11 08:21:27;;;;;;;9.65;2.10;;;2.00;99.90;;;;;;5077252;28;20556;-63
2023/03/11 08:23:57;;;;;;;5.22;2.15;;;2.00;99.90;;;;;;5067229;28;20048;-64
2023/03/11 08:26:23;;;;;;;9.43;2.70;;;2.60;99.90;;;;;;5068672;28;20041;-63
2023/03/11 08:28:49;;;;;;;5.97;1.80;;;2.70;99.90;;;;;;5067671;28;20047;-65
2023/03/11 08:31:19;;;;;;;7.15;2.00;;;2.00;99.90;;;;;;5069021;28;20036;-63
2023/03/11 08:33:48;;;;;;;10.23;2.00;;;1.70;99.90;;;;;;5065431;28;20049;-65
2023/03/11 08:36:15;;;;;;;4.38;1.38;;;1.60;99.90;;;;;;5072065;28;20648;-62
2023/03/11 08:38:40;;;;;;;6.13;2.17;;;0.80;99.90;;;;;;5067249;28;20123;-65
2023/03/11 08:41:06;;;;;;;6.75;1.75;;;0.70;99.90;;;;;;5070543;28;20953;-65
2023/03/11 08:43:32;;;;;;;6.20;1.63;;;0.70;99.90;;;;;;5066180;28;20044;-64
2023/03/11 08:46:02;;;;;;;6.75;1.48;;;1.00;99.90;;;;;;5072256;28;20389;-63
2023/03/11 08:48:28;;;;;;;5.80;1.48;;;1.10;99.90;;;;;;5066052;28;20190;-68
2023/03/11 08:50:54;;;;;;;6.75;1.42;;;1.10;99.90;;;;;;5072674;28;20111;-64
2023/03/11 08:53:21;;;;;;;6.72;1.58;;;1.00;99.90;;;;;;5068207;28;20059;-63
2023/03/11 08:55:46;;;;;;;3.60;1.40;;;0.90;99.90;;;;;;5071342;28;20052;-64
2023/03/11 08:58:12;;;;;;;8.02;1.50;;;1.10;99.90;;;;;;5067801;28;20134;-65
2023/03/11 09:00:38;;;;;;;5.00;1.30;;;1.30;99.90;;;;;;5068102;28;20125;-65
2023/03/11 09:03:03;;;;;;;6.60;1.10;;;1.30;99.90;;;;;;5068011;28;20186;-65
2023/03/11 09:05:29;;;;;;;8.00;1.95;;;1.10;99.90;;;;;;5069087;28;20515;-63
2023/03/11 09:07:55;;;;;;;10.13;1.50;;;1.10;99.90;;;;;;5068037;28;20043;-64
2023/03/11 09:10:21;;;;;;;3.92;1.10;;;1.20;99.90;;;;;;5069085;28;20036;-66
2023/03/11 09:12:47;;;;;;;7.32;1.63;;;1.10;99.90;;;;;;5067302;28;20588;-67
2023/03/11 09:15:12;;;;;;;3.92;1.50;;;1.40;99.90;;;;;;5064019;28;20086;-65
2023/03/11 09:17:38;;;;;;;5.93;1.00;;;1.40;99.90;;;;;;5066316;28;20127;-67
2023/03/11 09:20:04;;;;;;;5.15;1.05;;;1.60;99.90;;;;;;5063070;28;20046;-68
2023/03/11 09:22:30;;;;;;;6.47;1.30;;;1.50;99.90;;;;;;5064390;28;20036;-65
2023/03/11 09:24:56;;;;;;;5.82;1.20;;;1.40;99.90;;;;;;5063952;28;20041;-66
2023/03/11 09:27:22;;;;;;;5.93;1.45;;;1.70;99.90;;;;;;5066131;28;20067;-64
2023/03/11 09:29:48;;;;;;;7.57;1.08;;;2.00;99.90;;;;;;5062770;28;20099;-65
2023/03/11 09:32:14;;;;;;;7.13;2.08;;;2.00;99.90;;;;;;5045264;28;20083;-62
2023/03/11 09:34:40;;;;;;;3.42;0.88;;;2.00;99.90;;;;;;5067549;28;20032;-65
2023/03/11 09:37:06;;;;;;;3.88;1.52;;;2.10;99.90;;;;;;5065261;28;20155;-66
2023/03/11 09:39:32;;;;;;;4.82;1.10;;;1.90;99.90;;;;;;5061977;28;20256;-64
2023/03/11 09:42:03;;;;;;;6.78;1.63;;;1.50;99.90;;;;;;5064837;28;20032;-64
2023/03/11 09:44:37;;;;;;;5.88;1.60;;;1.50;99.90;;;;;;5061109;28;20049;-66
2023/03/11 09:47:11;;;;;;;7.18;0.80;;;1.90;99.90;;;;;;5064723;28;20102;-65
2023/03/11 09:50:02;;;;;;;5.90;1.10;;;1.70;99.90;;;;;;5060930;28;20037;-64
2023/03/11 09:52:45;;;;;;;2.65;0.82;;;1.80;99.90;;;;;;5064854;28;20059;-66
2023/03/11 09:55:31;;;;;;;6.18;1.50;;;1.60;99.90;;;;;;5061365;28;20548;-67
2023/03/11 09:58:00;;;;;;;2.25;1.00;;;1.10;99.90;;;;;;5060687;28;20521;-66
2023/03/11 10:00:27;;;;;;;3.17;0.98;;;1.40;99.90;;;;;;5062961;28;20049;-66
2023/03/11 10:02:53;;;;;;;4.97;1.02;;;1.10;99.90;;;;;;5068083;28;20040;-66
2023/03/11 10:05:27;;;;;;;3.05;1.00;;;1.10;99.90;;;;;;5061744;28;20674;-68
2023/03/11 10:08:03;;;;;;;4.30;0.77;;;1.60;99.90;;;;;;5065763;28;20041;-67
2023/03/11 10:10:37;;;;;;;8.40;1.23;;;1.70;99.90;;;;;;5061031;28;20071;-67
2023/03/11 10:13:29;;;;;;;3.75;1.23;;;1.70;99.90;;;;;;5064956;28;20048;-65
2023/03/11 10:16:10;;;;;;;5.72;1.20;;;1.80;99.90;;;;;;5056593;28;20136;-66
2023/03/11 10:18:42;;;;;;;2.13;0.75;;;1.90;99.90;;;;;;5073236;28;20036;-67
2023/03/11 10:21:24;;;;;;;6.13;1.20;;;1.70;99.90;;;;;;5065367;28;20136;-67
2023/03/11 10:24:02;;;;;;;3.95;1.00;;;1.40;99.90;;;;;;5059374;28;20123;-68
2023/03/11 10:26:40;;;;;;;10.75;1.77;;;1.50;99.90;;;;;;5061265;28;20052;-66
2023/03/11 10:29:22;;;;;;;2.78;1.02;;;1.30;99.90;;;;;;5065237;28;20114;-68
2023/03/11 10:31:59;;;;;;;6.72;1.00;;;1.30;99.90;;;;;;5061975;28;20066;-67
2023/03/11 10:34:31;;;;;;;3.08;1.00;;;1.40;99.90;;;;;;5061169;28;20489;-66
2023/03/11 10:37:03;;;;;;;7.53;1.10;;;1.40;99.90;;;;;;5066886;28;20147;-67
2023/03/11 10:39:31;;;;;;;8.57;1.58;;;1.30;99.90;;;;;;5063717;28;20041;-66
2023/03/11 10:42:00;;;;;;;9.90;1.65;;;1.20;99.90;;;;;;5065861;28;20416;-66
2023/03/11 10:44:34;;;;;;;5.22;1.38;;;1.10;99.90;;;;;;5062169;28;20055;-63
2023/03/11 10:47:00;;;;;;;7.05;1.27;;;1.20;99.90;;;;;;5063145;28;20064;-68
2023/03/11 10:49:26;;;;;;;10.60;1.13;;;1.70;99.90;;;;;;5061645;28;20044;-68
2023/03/11 10:51:54;;;;;;;4.05;1.20;;;1.90;99.90;;;;;;5063905;28;20114;-70
2023/03/11 10:54:31;;;;;;;6.85;1.65;;;1.40;99.90;;;;;;5064059;28;20501;-68
2023/03/11 10:57:02;;;;;;;8.27;1.13;;;1.00;99.90;;;;;;5060369;28;20033;-65
2023/03/11 10:59:33;;;;;;;4.53;0.88;;;1.20;99.90;;;;;;5062575;28;20424;-63
2023/03/11 11:02:00;;;;;;;4.68;0.90;;;1.60;99.90;;;;;;5060917;28;20041;-66
2023/03/11 11:04:36;;;;;;;24.63;4.75;;;1.60;99.90;;;;;;5062720;28;20503;-65
2023/03/11 11:07:28;;;;;;;8.50;1.80;;;1.90;99.90;;;;;;5063978;28;20037;-66
2023/03/11 11:10:26;;;;;;;4.07;1.40;;;1.70;99.90;;;;;;5065323;28;20666;-67
2023/03/11 11:12:59;;;;;;;5.80;1.73;;;1.70;99.90;;;;;;5066982;28;20048;-64
2023/03/11 11:15:36;;;;;;;2.13;0.80;;;1.80;99.90;;;;;;5062611;28;20152;-66
2023/03/11 11:18:03;;;;;;;1.15;0.70;;;2.00;99.90;;;;;;5064948;28;20044;-68
2023/03/11 11:20:30;;;;;;;2.75;0.80;;;2.00;99.90;;;;;;5067020;28;20420;-68
2023/03/11 11:23:02;;;;;;;4.60;1.02;;;2.10;99.90;;;;;;5066408;28;20540;-66
2023/03/11 11:25:41;;;;;;;11.68;1.40;;;2.10;99.90;;;;;;5069839;28;20423;-66
2023/03/11 11:28:18;;;;;;;4.03;1.30;;;2.30;99.90;;;;;;5066431;28;20842;-67
2023/03/11 11:30:56;;;;;;;4.65;1.10;;;2.50;99.90;;;;;;5066372;28;20060;-64
2023/03/11 11:33:30;;;;;;;54.13;18.17;;;2.90;99.90;;;;;;5061370;28;20040;-65
2023/03/11 11:36:00;;;;;;;10.73;2.33;;;3.00;99.90;;;;;;5066620;28;20448;-64
2023/03/11 11:38:27;;;;;;;5.72;1.13;;;2.90;99.90;;;;;;5065101;28;20102;-66
2023/03/11 11:40:56;;;;;;;4.28;1.10;;;3.00;99.90;;;;;;5066612;28;20040;-67
2023/03/11 11:43:53;;;;;;;1.48;0.80;;;2.80;99.90;;;;;;5065906;28;20048;-65
2023/03/11 11:46:21;;;;;;;4.18;1.00;;;3.00;99.90;;;;;;5056995;28;20090;-67
2023/03/11 11:49:04;;;;;;;5.63;1.88;;;3.50;99.90;;;;;;5067466;28;20562;-65
2023/03/11 11:51:41;;;;;;;2.75;0.82;;;3.30;99.80;;;;;;5060591;28;20063;-66
2023/03/11 11:54:27;;;;;;;5.85;1.30;;;3.10;99.90;;;;;;5067584;28;20461;-66
2023/03/11 11:56:55;;;;;;;3.75;0.95;;;3.60;99.90;;;;;;5072953;28;20040;-66
2023/03/11 11:59:21;;;;;;;6.25;1.10;;;3.50;99.90;;;;;;5067931;28;20493;-65
2023/03/11 12:02:17;;;;;;;9.93;1.20;;;3.00;99.90;;;;;;5064746;28;20044;-64
2023/03/11 12:05:05;;;;;;;2.63;1.02;;;3.20;99.90;;;;;;5066160;28;20812;-66
2023/03/11 12:07:48;;;;;;;10.32;1.20;;;3.20;99.90;;;;;;5067625;28;20044;-64
2023/03/11 12:10:36;;;;;;;6.20;1.65;;;2.90;99.90;;;;;;5067471;28;20071;-64
2023/03/11 12:13:20;;;;;;;5.88;1.25;;;3.00;99.90;;;;;;5064495;28;20040;-65
2023/03/11 12:15:57;;;;;;;5.57;1.58;;;2.70;99.90;;;;;;5068324;28;20032;-62
2023/03/11 12:18:39;;;;;;;5.72;1.20;;;2.40;99.90;;;;;;5065333;28;20040;-65
2023/03/11 12:21:30;;;;;;;4.68;1.15;;;2.10;99.90;;;;;;5077210;28;20045;-66
2023/03/11 12:24:14;;;;;;;7.25;1.20;;;1.70;99.90;;;;;;5067536;28;20033;-62
2023/03/11 12:26:42;;;;;;;6.95;1.30;;;1.50;99.90;;;;;;5067529;28;20040;-62
2023/03/11 12:29:27;;;;;;;5.07;1.33;;;1.50;99.90;;;;;;5069149;28;20512;-62
2023/03/11 12:31:55;;;;;;;7.97;1.30;;;1.90;99.90;;;;;;5068113;28;20086;-63
2023/03/11 12:34:23;;;;;;;7.25;1.15;;;2.30;99.90;;;;;;5068394;28;20108;-63
2023/03/11 12:36:51;;;;;;;4.35;0.88;;;2.40;99.90;;;;;;5070269;28;20097;-63
2023/03/11 12:39:29;;;;;;;6.07;1.17;;;2.40;99.90;;;;;;5068678;28;20044;-65
2023/03/11 12:42:10;;;;;;;6.95;1.17;;;2.50;99.90;;;;;;5071850;28;20068;-64
2023/03/11 12:44:36;;;;;;;3.50;1.15;;;2.80;99.90;;;;;;5070702;28;20040;-65
2023/03/11 12:47:11;;;;;;;5.13;1.27;;;2.90;99.90;;;;;;5069403;28;20045;-65
2023/03/11 12:49:42;;;;;;;4.13;1.00;;;3.00;99.90;;;;;;5071485;28;20059;-64
2023/03/11 12:52:07;;;;;;;6.35;1.00;;;2.80;99.90;;;;;;5070274;28;20109;-64
2023/03/11 12:54:34;;;;;;;7.13;1.15;;;2.80;99.90;;;;;;5067742;28;20036;-62
2023/03/11 12:57:16;;;;;;;5.20;1.35;;;2.60;99.90;;;;;;5067999;28;20037;-63
2023/03/11 13:00:06;;;;;;;5.40;1.30;;;2.50;99.90;;;;;;5067550;28;20531;-63